Aérodrome :
LOGIN :

S'inscrire | Disclaimer

   EN    FR    IT 

 










Légende :    VFR   VFR Marginal   IFR   IFR Intensif   IFR Très Intensif
Visi : 
Plafond : 
>= 8 km
>= 3000ft
5 à 8 km
1000 à 3000 ft
1500m à 5 km
500 à 1000 ft
800 à 1500m
200 à 500 ft
< 800m
< 200 ft
Symboles :   Orages  Brouillard  Fortes neiges  Fortes précipitations  Vent > 20 kt
SIGMETs :   Divers  Orages  Givrage  Turbulence  Onde Orograph.  Cendres Volcan.






- Altitude de l'aérodrome : 616 ft
- Code IATA : PUF


LFBP - Pau

DERNIER METAR :
  • 071330Z AUTO VRB03KT 9999 BKN047 15/09 Q1022 NOSIG

METARs EXPIRÉS :
  • 071300Z AUTO VRB02KT 9999 FEW038 14/09 Q1023 NOSIG
  • 071230Z AUTO VRB02KT 9999 SCT040 BKN200 14/09 Q1023 NOSIG
  • 071200Z AUTO 00000KT 9999 BKN037 14/09 Q1023 NOSIG
  • 071130Z AUTO 16003KT 080V210 9999 BKN037 BKN052 BKN190 13/09 Q1024 NOSIG
  • 071100Z AUTO 16003KT 110V220 9999 FEW049 SCT080 BKN190 13/09 Q1024 NOSIG

TAF TAF LFBP
Valide du 07 à 12h jusqu'au 08 à 12h UTC


071100Z 0712/0812 15005KT 9999 BKN040
BECMG 0722/0724 CAVOK
TEMPO 0800/0806 4000 BR
BECMG 0810/0812 24010KT 4000 -RA OVC020



MET'MAP, la Météo Aéronautique d'un coup d'oeil ! - Copyright ORBIFLY Décembre 2007 - Disclaimer

ORBIFLY MET'MAP TEAM :

Programmation & Développement : Alexandra Zaïnal
Sur une idée originale de : Baudouin d'Aumeries
Assistance à la programmation : Marc-Olivier Méhu
Soutien technique & logistique : Manuel Goepfert

Contact : metmap@orbifly.com




SOURCES & CREDITS :

   NOAA